Enchantment of the Seas — C6FZ7 — position and weather

sailwx.info

Track history (hours):
 
Tides and Currents Weather Stations Pressure Air Temp Water Temp Dewpoint Dewpoint Depression Visibility Wind Speed Wind Dir Waves Ship Positions

Enchantment of the Seas (Bahamas)

Last reported at 2017-Jan-18 10:00 UTC. Time now 2017-Jan-18 18:06 UTC.
Position N 25°42' W 077°30'.

Type: Passenger vessel. MMSI: 311733000.

Wind from 120 at 8 knots

Barometer 1021.0 mb
Air temperature 23.0 ° C
Dewpoint 21.5 ° C
Water temperature 28.0 ° C

Date/timePositionNaut miles runAvg speedWind from/ knotsBaromVisibWave heightAir tempDewpointWater temp
2017-Jan-18 10:00N 25°42' W 077°30'25 1.0 120 / 81021.0 23.021.528.0
2017-Jan-17 10:00N 25°18' W 077°24'11112.3 090 / 221021.0 23.021.528.0
2017-Jan-17 01:00N 26°00' W 079°18'2517.1 090 / 201021.010.8 21.019.4
2017-Jan-16 23:33N 25°55' W 079°45'1515.2
2017-Jan-16 22:33N 25°48' W 079°59'9 9.4
2017-Jan-16 21:33N 25°47' W 080°10'1 0.9
2017-Jan-16 20:33N 25°47' W 080°11'0 0.0
2017-Jan-16 19:33N 25°47' W 080°11'0 0.0
2017-Jan-16 18:33N 25°47' W 080°11'0 0.0
2017-Jan-16 17:33N 25°47' W 080°11'0 0.0
2017-Jan-16 16:33N 25°47' W 080°11'0 0.0
2017-Jan-16 15:33N 25°47' W 080°11'0 0.0
2017-Jan-16 14:30N 25°47' W 080°11'0 0.0
2017-Jan-16 13:33N 25°47' W 080°11'0 0.0
2017-Jan-16 12:33N 25°47' W 080°11'0 0.3
2017-Jan-16 11:34N 25°47' W 080°10'9 9.2
2017-Jan-16 10:34N 25°47' W 080°00'1111.3
2017-Jan-16 09:33N 25°53' W 079°49'2 2.8
2017-Jan-16 09:00N 25°54' W 079°48'1124.7 090 / 171022.0 21.017.828.0
2017-Jan-16 08:33N 25°59' W 079°37'71 1.5
2017-Jan-14 10:00N 25°54' W 078°18'84 8.1 050 / 301022.0 21.017.828.0
2017-Jan-13 23:33N 25°54' W 079°51'10 9.5
2017-Jan-13 22:33N 25°49' W 080°01'8 8.2
2017-Jan-13 21:33N 25°46' W 080°09'1 1.4
2017-Jan-13 20:31N 25°47' W 080°11'0 0.0
2017-Jan-13 19:31N 25°47' W 080°11'0 0.0
2017-Jan-13 18:31N 25°47' W 080°11'0 0.0
2017-Jan-13 17:31N 25°47' W 080°11'0 0.0
2017-Jan-13 16:31N 25°47' W 080°11'0 0.0
2017-Jan-13 15:31N 25°47' W 080°11'0 0.0
2017-Jan-13 14:31N 25°47' W 080°11'0 0.0
2017-Jan-13 13:31N 25°47' W 080°11'0 0.0
2017-Jan-13 12:31N 25°47' W 080°11'0 0.2
2017-Jan-13 11:34N 25°47' W 080°11'6 6.5
2017-Jan-13 10:34N 25°47' W 080°04'1212.4
2017-Jan-13 09:34N 25°41' W 079°52'1414.0
2017-Jan-13 08:33N 25°27' W 079°51'105 4.7
2017-Jan-12 10:00N 24°24' W 081°24'96 8.4 100 / 251022.0 22.018.928.0
2017-Jan-11 22:31N 25°20' W 079°58'9 9.2
2017-Jan-11 21:33N 25°27' W 079°51'1110.7
2017-Jan-11 20:33N 25°35' W 079°43'1413.6
2017-Jan-11 19:33N 25°45' W 079°33'10011.7
2017-Jan-11 11:00N 25°48' W 077°42'21 0.8 050 / 171023.0 22.018.928.0
2017-Jan-10 10:00N 25°30' W 077°30'11512.1 080 / 251023.0 19.015.728.0
2017-Jan-10 00:27N 25°59' W 079°34'1314.2
2017-Jan-09 23:34N 25°54' W 079°47'1414.0
2017-Jan-09 22:33N 25°47' W 079°60'9 8.9
2017-Jan-09 21:33N 25°47' W 080°10'1 0.9
2017-Jan-09 20:31N 25°47' W 080°11'0 0.0
2017-Jan-09 19:31N 25°47' W 080°11'0 0.0
2017-Jan-09 18:31N 25°47' W 080°11'0 0.0
2017-Jan-09 17:31N 25°47' W 080°11'0 0.0
2017-Jan-09 16:31N 25°47' W 080°11'0 0.0
2017-Jan-09 15:31N 25°47' W 080°11'0 0.0
2017-Jan-09 14:31N 25°47' W 080°11'0 0.0
2017-Jan-09 13:31N 25°47' W 080°11'0 0.0
2017-Jan-09 12:31N 25°47' W 080°11'0 0.0
2017-Jan-09 11:31N 25°47' W 080°11'8 8.0
2017-Jan-09 10:33N 25°47' W 080°02'8 7.8
2017-Jan-09 09:33N 25°51' W 079°55'711.7
2017-Jan-09 09:00N 25°54' W 079°48'2 4.3 040 / 251027.0 19.017.428.0
2017-Jan-09 08:33N 25°56' W 079°48'8 7.8
2017-Jan-09 07:33N 26°00' W 079°40'8 8.0
2017-Jan-09 06:33N 26°04' W 079°33'126 6.1
2017-Jan-08 10:00N 25°30' W 077°18'   010 / 381013.0 22.020.528.0
Track history (hours):
 
Tides and Currents Weather Stations Pressure Air Temp Water Temp Dewpoint Dewpoint Depression Visibility Wind Speed Wind Dir Waves Ship Positions

Enchantment of the Seas (Bahamas)

Last reported at 2017-Jan-18 10:00 UTC. Time now 2017-Jan-18 18:06 UTC.
Position N 25°42' W 077°30'.

Type: Passenger vessel. MMSI: 311733000.

Wind from 120 at 8 knots

Barometer 1021.0 mb
Air temperature 23.0 ° C
Dewpoint 21.5 ° C
Water temperature 28.0 ° C

Date/timePositionNaut miles runAvg speedWind from/ knotsBaromVisibWave heightAir tempDewpointWater temp
2017-Jan-18 10:00N 25°42' W 077°30'25 1.0 120 / 81021.0 23.021.528.0
2017-Jan-17 10:00N 25°18' W 077°24'11112.3 090 / 221021.0 23.021.528.0
2017-Jan-17 01:00N 26°00' W 079°18'2517.1 090 / 201021.010.8 21.019.4
2017-Jan-16 23:33N 25°55' W 079°45'1515.2
2017-Jan-16 22:33N 25°48' W 079°59'9 9.4
2017-Jan-16 21:33N 25°47' W 080°10'1 0.9
2017-Jan-16 20:33N 25°47' W 080°11'0 0.0
2017-Jan-16 19:33N 25°47' W 080°11'0 0.0
2017-Jan-16 18:33N 25°47' W 080°11'0 0.0
2017-Jan-16 17:33N 25°47' W 080°11'0 0.0
2017-Jan-16 16:33N 25°47' W 080°11'0 0.0
2017-Jan-16 15:33N 25°47' W 080°11'0 0.0
2017-Jan-16 14:30N 25°47' W 080°11'0 0.0
2017-Jan-16 13:33N 25°47' W 080°11'0 0.0
2017-Jan-16 12:33N 25°47' W 080°11'0 0.3
2017-Jan-16 11:34N 25°47' W 080°10'9 9.2
2017-Jan-16 10:34N 25°47' W 080°00'1111.3
2017-Jan-16 09:33N 25°53' W 079°49'2 2.8
2017-Jan-16 09:00N 25°54' W 079°48'1124.7 090 / 171022.0 21.017.828.0
2017-Jan-16 08:33N 25°59' W 079°37'71 1.5
2017-Jan-14 10:00N 25°54' W 078°18'84 8.1 050 / 301022.0 21.017.828.0
2017-Jan-13 23:33N 25°54' W 079°51'10 9.5
2017-Jan-13 22:33N 25°49' W 080°01'8 8.2
2017-Jan-13 21:33N 25°46' W 080°09'1 1.4
2017-Jan-13 20:31N 25°47' W 080°11'0 0.0
2017-Jan-13 19:31N 25°47' W 080°11'0 0.0
2017-Jan-13 18:31N 25°47' W 080°11'0 0.0
2017-Jan-13 17:31N 25°47' W 080°11'0 0.0
2017-Jan-13 16:31N 25°47' W 080°11'0 0.0
2017-Jan-13 15:31N 25°47' W 080°11'0 0.0
2017-Jan-13 14:31N 25°47' W 080°11'0 0.0
2017-Jan-13 13:31N 25°47' W 080°11'0 0.0
2017-Jan-13 12:31N 25°47' W 080°11'0 0.2
2017-Jan-13 11:34N 25°47' W 080°11'6 6.5
2017-Jan-13 10:34N 25°47' W 080°04'1212.4
2017-Jan-13 09:34N 25°41' W 079°52'1414.0
2017-Jan-13 08:33N 25°27' W 079°51'105 4.7
2017-Jan-12 10:00N 24°24' W 081°24'96 8.4 100 / 251022.0 22.018.928.0
2017-Jan-11 22:31N 25°20' W 079°58'9 9.2
2017-Jan-11 21:33N 25°27' W 079°51'1110.7
2017-Jan-11 20:33N 25°35' W 079°43'1413.6
2017-Jan-11 19:33N 25°45' W 079°33'10011.7
2017-Jan-11 11:00N 25°48' W 077°42'21 0.8 050 / 171023.0 22.018.928.0
2017-Jan-10 10:00N 25°30' W 077°30'11512.1 080 / 251023.0 19.015.728.0
2017-Jan-10 00:27N 25°59' W 079°34'1314.2
2017-Jan-09 23:34N 25°54' W 079°47'1414.0
2017-Jan-09 22:33N 25°47' W 079°60'9 8.9
2017-Jan-09 21:33N 25°47' W 080°10'1 0.9
2017-Jan-09 20:31N 25°47' W 080°11'0 0.0
2017-Jan-09 19:31N 25°47' W 080°11'0 0.0
2017-Jan-09 18:31N 25°47' W 080°11'0 0.0
2017-Jan-09 17:31N 25°47' W 080°11'0 0.0
2017-Jan-09 16:31N 25°47' W 080°11'0 0.0
2017-Jan-09 15:31N 25°47' W 080°11'0 0.0
2017-Jan-09 14:31N 25°47' W 080°11'0 0.0
2017-Jan-09 13:31N 25°47' W 080°11'0 0.0
2017-Jan-09 12:31N 25°47' W 080°11'0 0.0
2017-Jan-09 11:31N 25°47' W 080°11'8 8.0
2017-Jan-09 10:33N 25°47' W 080°02'8 7.8
2017-Jan-09 09:33N 25°51' W 079°55'711.7
2017-Jan-09 09:00N 25°54' W 079°48'2 4.3 040 / 251027.0 19.017.428.0
2017-Jan-09 08:33N 25°56' W 079°48'8 7.8
2017-Jan-09 07:33N 26°00' W 079°40'8 8.0
2017-Jan-09 06:33N 26°04' W 079°33'126 6.1
2017-Jan-08 10:00N 25°30' W 077°18'   010 / 381013.0 22.020.528.0

Dump ship's entire track history